MSC Suez — HPMS — position and weather

sailwx.info

Track history (hours):
 
Tides and Currents Weather Stations Pressure Air Temp Water Temp Dewpoint Dewpoint Depression Visibility Wind Speed Wind Dir Waves Ship Positions

MSC Suez

Last reported at 2015-Jun-12 11:04 UTC. Time now 2015-Jul-02 18:19 UTC.
Position N 27°34' W 015°25'.
Warning: this ship's position is 20 days out of date.

Length 237 m; draft 12.1 m.

Type: Cargo ship. MMSI: 355289000.

Date/timePositionNaut miles runAvg speedWind from/ knotsBaromVisibWave heightAir tempDewpointWater temp
2015-Jun-12 11:04N 27°34' W 015°25'815.7
2015-Jun-12 10:33N 27°42' W 015°22'1615.9
2015-Jun-12 09:33N 27°57' W 015°19'1211.7
2015-Jun-12 08:34N 28°08' W 015°25'1 0.5
2015-Jun-12 07:28N 28°08' W 015°25'0 0.0
2015-Jun-12 06:28N 28°08' W 015°25'0 0.0
2015-Jun-12 05:31N 28°08' W 015°25'0 0.0
2015-Jun-12 04:31N 28°08' W 015°25'0 0.0
2015-Jun-12 03:31N 28°08' W 015°25'0 0.0
2015-Jun-12 02:31N 28°08' W 015°25'0 0.0
2015-Jun-12 01:31N 28°08' W 015°25'0 0.0
2015-Jun-12 00:31N 28°08' W 015°25'0 0.0
2015-Jun-11 23:31N 28°08' W 015°25'0 0.0
2015-Jun-11 22:22N 28°08' W 015°25'0 0.0
2015-Jun-11 21:25N 28°08' W 015°25'0 0.0
2015-Jun-11 20:25N 28°08' W 015°25'0 0.0
2015-Jun-11 19:25N 28°08' W 015°25'0 0.0
2015-Jun-11 18:28N 28°08' W 015°25'0 0.0
2015-Jun-11 17:28N 28°08' W 015°25'0 0.0
2015-Jun-11 16:28N 28°08' W 015°25'0 0.0
2015-Jun-11 15:31N 28°08' W 015°25'0 0.0
2015-Jun-11 14:31N 28°08' W 015°25'0 0.0
2015-Jun-11 13:31N 28°08' W 015°25'0 0.0
2015-Jun-11 12:33N 28°08' W 015°25'0 0.0
2015-Jun-11 11:33N 28°08' W 015°25'0 0.0
2015-Jun-11 10:33N 28°08' W 015°25'0 0.0
2015-Jun-11 09:34N 28°08' W 015°25'0 0.2
2015-Jun-11 08:33N 28°08' W 015°25'6 5.8
2015-Jun-11 07:33N 28°12' W 015°21'1212.0
2015-Jun-11 06:33N 28°24' W 015°18'1211.9
2015-Jun-11 05:33N 28°36' W 015°15'1414.4
2015-Jun-11 04:34N 28°49' W 015°10'1615.9
2015-Jun-11 03:32N 29°05' W 015°06'1615.7
2015-Jun-11 02:31N 29°21' W 015°02'1916.0
2015-Jun-11 01:20N 29°39' W 014°55'1316.1
2015-Jun-11 00:31N 29°52' W 014°52'1516.0
2015-Jun-10 23:33N 30°07' W 014°47'40714.5
2015-Jun-09 19:27N 36°40' W 012°43'3015.6
2015-Jun-09 17:32N 37°09' W 012°35'1212.3
2015-Jun-09 16:33N 37°21' W 012°31'1312.1
2015-Jun-09 15:30N 37°33' W 012°26'1212.4
2015-Jun-09 14:32N 37°44' W 012°22'  
2015-Jun-07 04:33N 49°53' W 003°09'1818.0
2015-Jun-07 03:33N 49°60' W 002°43'6314.5
2015-Jun-06 23:10N 49°47' W 001°06'812.7
2015-Jun-06 22:33N 49°45' W 000°55'1313.2
2015-Jun-06 21:33N 49°39' W 000°36'1414.1
2015-Jun-06 20:34N 49°34' W 000°17'1514.7
2015-Jun-06 19:34N 49°29' E 000°05'3 2.7
2015-Jun-06 18:32N 49°28' E 000°09'0 0.0
2015-Jun-06 17:32N 49°28' E 000°09'0 0.0
2015-Jun-06 16:32N 49°28' E 000°09'0 0.0
2015-Jun-06 15:32N 49°28' E 000°09'0 0.0
2015-Jun-06 14:32N 49°28' E 000°09'0 0.0
2015-Jun-06 13:32N 49°28' E 000°09'0 0.0
2015-Jun-06 12:32N 49°28' E 000°09'0 0.0
2015-Jun-06 11:32N 49°28' E 000°09'2 2.1
2015-Jun-06 10:33N 49°28' E 000°06'1212.0
2015-Jun-06 09:33N 49°33' W 000°11'8 7.8
2015-Jun-06 08:33N 49°41' W 000°12'1212.4
2015-Jun-06 07:33N 49°53' W 000°11'3414.5
2015-Jun-06 05:13N 50°27' W 000°02'1217.0
2015-Jun-06 04:31N 50°31' E 000°16'1616.3
2015-Jun-06 03:33N 50°39' E 000°38'1515.2
2015-Jun-06 02:34N 50°48' E 000°56'1414.0
2015-Jun-06 01:34N 50°57' E 001°13'1312.9
2015-Jun-06 00:33N 51°05' E 001°29'1515.0
2015-Jun-05 23:33N 51°18' E 001°41'1717.4
2015-Jun-05 22:34N 51°36' E 001°45'1616.2
2015-Jun-05 21:33N 51°51' E 001°39'10 9.6
2015-Jun-05 20:33N 51°56' E 001°25'5 5.3
2015-Jun-05 19:32N 51°58' E 001°17'0 0.0
2015-Jun-05 18:33N 51°58' E 001°17'0 0.0
2015-Jun-05 17:32N 51°58' E 001°17'0 0.0
2015-Jun-05 16:32N 51°58' E 001°17'0 0.0
2015-Jun-05 15:32N 51°58' E 001°17'0 0.0
2015-Jun-05 14:32N 51°58' E 001°17'0 0.0
2015-Jun-05 13:32N 51°58' E 001°17'0 0.0
2015-Jun-05 12:32N 51°58' E 001°17'0 0.0
2015-Jun-05 11:32N 51°58' E 001°17'0 0.0
2015-Jun-05 10:32N 51°58' E 001°17'0 0.0
2015-Jun-05 09:32N 51°58' E 001°17'0 0.0
2015-Jun-05 08:32N 51°58' E 001°17'0 0.5
2015-Jun-05 07:33N 51°57' E 001°18'9 8.9
2015-Jun-05 06:33N 51°56' E 001°32'7 6.6
2015-Jun-05 05:33N 51°53' E 001°41'1 0.8
2015-Jun-05 04:31N 51°53' E 001°41'0 0.0
2015-Jun-05 03:31N 51°53' E 001°41'0 0.0
2015-Jun-05 02:31N 51°53' E 001°41'0 0.2
2015-Jun-05 01:31N 51°53' E 001°40'0 0.2
2015-Jun-05 00:31N 51°53' E 001°40'0 0.0
2015-Jun-04 23:31N 51°53' E 001°40'0 0.0
2015-Jun-04 22:31N 51°53' E 001°40'0 0.0
2015-Jun-04 21:31N 51°53' E 001°40'0 0.0
2015-Jun-04 20:31N 51°53' E 001°40'0 0.0
2015-Jun-04 19:31N 51°53' E 001°40'0 0.3
2015-Jun-04 18:31N 51°53' E 001°41'0 0.0
2015-Jun-04 17:31N 51°53' E 001°41'0 0.0
2015-Jun-04 16:31N 51°53' E 001°41'0 0.0
2015-Jun-04 15:31N 51°53' E 001°41'0 0.0
2015-Jun-04 14:31N 51°53' E 001°41'0 0.1
2015-Jun-04 13:31N 51°53' E 001°41'0 0.2
2015-Jun-04 12:33N 51°53' E 001°40'2 1.9
2015-Jun-04 11:33N 51°52' E 001°43'1211.8
2015-Jun-04 10:33N 51°41' E 001°50'1413.9
2015-Jun-04 09:34N 51°27' E 001°55'1312.8
2015-Jun-04 08:33N 51°21' E 002°12'1616.3
2015-Jun-04 07:33N 51°22' E 002°38'1515.2
2015-Jun-04 06:34N 51°25' E 003°02'1818.0
2015-Jun-04 05:34N 51°25' E 003°31'10 9.5
2015-Jun-04 04:34N 51°22' E 003°46'10 9.7
2015-Jun-04 03:33N 51°26' E 003°59'7 7.1
2015-Jun-04 02:33N 51°23' E 004°09'5 5.4
2015-Jun-04 01:33N 51°21' E 004°17'1 0.7
2015-Jun-04 00:34N 51°20' E 004°18'1 1.3
2015-Jun-03 23:33N 51°19' E 004°20'0 0.0
2015-Jun-03 22:33N 51°19' E 004°20'0 0.0
2015-Jun-03 21:33N 51°19' E 004°20'0 0.0
2015-Jun-03 20:33N 51°19' E 004°20'0 0.0
2015-Jun-03 19:33N 51°19' E 004°20'0 0.0
2015-Jun-03 18:27N 51°19' E 004°20'0 0.0
2015-Jun-03 17:33N 51°19' E 004°20'0 0.0
2015-Jun-03 16:33N 51°19' E 004°20'0 0.0
2015-Jun-03 15:33N 51°19' E 004°20'0 0.0
2015-Jun-03 14:33N 51°19' E 004°20'0 0.0
2015-Jun-03 13:33N 51°19' E 004°20'0 0.0
2015-Jun-03 12:33N 51°19' E 004°20'0 0.0
2015-Jun-03 11:33N 51°19' E 004°20'0 0.0
2015-Jun-03 10:32N 51°19' E 004°20'0 0.0
2015-Jun-03 09:32N 51°19' E 004°20'0 0.0
2015-Jun-03 08:32N 51°19' E 004°20'0 0.0
2015-Jun-03 07:32N 51°19' E 004°20'0 0.0
2015-Jun-03 06:32N 51°19' E 004°20'0 0.0
2015-Jun-03 05:32N 51°19' E 004°20'0 0.0
2015-Jun-03 04:32N 51°19' E 004°20'0 0.0
2015-Jun-03 03:32N 51°19' E 004°20'0 0.0
2015-Jun-03 02:32N 51°19' E 004°20'0 0.0
2015-Jun-03 01:32N 51°19' E 004°20'0 0.0
2015-Jun-03 00:32N 51°19' E 004°20'0 0.0
2015-Jun-02 23:32N 51°19' E 004°20'0 0.0
2015-Jun-02 22:33N 51°19' E 004°20'0 0.0
2015-Jun-02 21:33N 51°19' E 004°20'0 0.0
2015-Jun-02 20:27N 51°19' E 004°20'0 0.0
2015-Jun-02 19:33N 51°19' E 004°20'0 0.0
2015-Jun-02 18:33N 51°20' E 004°20'2 2.0
2015-Jun-02 17:33N 51°21' E 004°17'0 0.1
2015-Jun-02 16:33N 51°21' E 004°17'5 4.9
2015-Jun-02 15:33N 51°23' E 004°10'8 8.0
2015-Jun-02 14:33N 51°24' E 003°57'10 9.9
2015-Jun-02 13:33N 51°25' E 003°42'1313.2
2015-Jun-02 12:33N 51°24' E 003°21'1312.6
2015-Jun-02 11:33N 51°28' E 003°02'  
Track history (hours):
 
Tides and Currents Weather Stations Pressure Air Temp Water Temp Dewpoint Dewpoint Depression Visibility Wind Speed Wind Dir Waves Ship Positions

MSC Suez

Last reported at 2015-Jun-12 11:04 UTC. Time now 2015-Jul-02 18:19 UTC.
Position N 27°34' W 015°25'.
Warning: this ship's position is 20 days out of date.

Length 237 m; draft 12.1 m.

Type: Cargo ship. MMSI: 355289000.

Date/timePositionNaut miles runAvg speedWind from/ knotsBaromVisibWave heightAir tempDewpointWater temp
2015-Jun-12 11:04N 27°34' W 015°25'815.7
2015-Jun-12 10:33N 27°42' W 015°22'1615.9
2015-Jun-12 09:33N 27°57' W 015°19'1211.7
2015-Jun-12 08:34N 28°08' W 015°25'1 0.5
2015-Jun-12 07:28N 28°08' W 015°25'0 0.0
2015-Jun-12 06:28N 28°08' W 015°25'0 0.0
2015-Jun-12 05:31N 28°08' W 015°25'0 0.0
2015-Jun-12 04:31N 28°08' W 015°25'0 0.0
2015-Jun-12 03:31N 28°08' W 015°25'0 0.0
2015-Jun-12 02:31N 28°08' W 015°25'0 0.0
2015-Jun-12 01:31N 28°08' W 015°25'0 0.0
2015-Jun-12 00:31N 28°08' W 015°25'0 0.0
2015-Jun-11 23:31N 28°08' W 015°25'0 0.0
2015-Jun-11 22:22N 28°08' W 015°25'0 0.0
2015-Jun-11 21:25N 28°08' W 015°25'0 0.0
2015-Jun-11 20:25N 28°08' W 015°25'0 0.0
2015-Jun-11 19:25N 28°08' W 015°25'0 0.0
2015-Jun-11 18:28N 28°08' W 015°25'0 0.0
2015-Jun-11 17:28N 28°08' W 015°25'0 0.0
2015-Jun-11 16:28N 28°08' W 015°25'0 0.0
2015-Jun-11 15:31N 28°08' W 015°25'0 0.0
2015-Jun-11 14:31N 28°08' W 015°25'0 0.0
2015-Jun-11 13:31N 28°08' W 015°25'0 0.0
2015-Jun-11 12:33N 28°08' W 015°25'0 0.0
2015-Jun-11 11:33N 28°08' W 015°25'0 0.0
2015-Jun-11 10:33N 28°08' W 015°25'0 0.0
2015-Jun-11 09:34N 28°08' W 015°25'0 0.2
2015-Jun-11 08:33N 28°08' W 015°25'6 5.8
2015-Jun-11 07:33N 28°12' W 015°21'1212.0
2015-Jun-11 06:33N 28°24' W 015°18'1211.9
2015-Jun-11 05:33N 28°36' W 015°15'1414.4
2015-Jun-11 04:34N 28°49' W 015°10'1615.9
2015-Jun-11 03:32N 29°05' W 015°06'1615.7
2015-Jun-11 02:31N 29°21' W 015°02'1916.0
2015-Jun-11 01:20N 29°39' W 014°55'1316.1
2015-Jun-11 00:31N 29°52' W 014°52'1516.0
2015-Jun-10 23:33N 30°07' W 014°47'40714.5
2015-Jun-09 19:27N 36°40' W 012°43'3015.6
2015-Jun-09 17:32N 37°09' W 012°35'1212.3
2015-Jun-09 16:33N 37°21' W 012°31'1312.1
2015-Jun-09 15:30N 37°33' W 012°26'1212.4
2015-Jun-09 14:32N 37°44' W 012°22'  
2015-Jun-07 04:33N 49°53' W 003°09'1818.0
2015-Jun-07 03:33N 49°60' W 002°43'6314.5
2015-Jun-06 23:10N 49°47' W 001°06'812.7
2015-Jun-06 22:33N 49°45' W 000°55'1313.2
2015-Jun-06 21:33N 49°39' W 000°36'1414.1
2015-Jun-06 20:34N 49°34' W 000°17'1514.7
2015-Jun-06 19:34N 49°29' E 000°05'3 2.7
2015-Jun-06 18:32N 49°28' E 000°09'0 0.0
2015-Jun-06 17:32N 49°28' E 000°09'0 0.0
2015-Jun-06 16:32N 49°28' E 000°09'0 0.0
2015-Jun-06 15:32N 49°28' E 000°09'0 0.0
2015-Jun-06 14:32N 49°28' E 000°09'0 0.0
2015-Jun-06 13:32N 49°28' E 000°09'0 0.0
2015-Jun-06 12:32N 49°28' E 000°09'0 0.0
2015-Jun-06 11:32N 49°28' E 000°09'2 2.1
2015-Jun-06 10:33N 49°28' E 000°06'1212.0
2015-Jun-06 09:33N 49°33' W 000°11'8 7.8
2015-Jun-06 08:33N 49°41' W 000°12'1212.4
2015-Jun-06 07:33N 49°53' W 000°11'3414.5
2015-Jun-06 05:13N 50°27' W 000°02'1217.0
2015-Jun-06 04:31N 50°31' E 000°16'1616.3
2015-Jun-06 03:33N 50°39' E 000°38'1515.2
2015-Jun-06 02:34N 50°48' E 000°56'1414.0
2015-Jun-06 01:34N 50°57' E 001°13'1312.9
2015-Jun-06 00:33N 51°05' E 001°29'1515.0
2015-Jun-05 23:33N 51°18' E 001°41'1717.4
2015-Jun-05 22:34N 51°36' E 001°45'1616.2
2015-Jun-05 21:33N 51°51' E 001°39'10 9.6
2015-Jun-05 20:33N 51°56' E 001°25'5 5.3
2015-Jun-05 19:32N 51°58' E 001°17'0 0.0
2015-Jun-05 18:33N 51°58' E 001°17'0 0.0
2015-Jun-05 17:32N 51°58' E 001°17'0 0.0
2015-Jun-05 16:32N 51°58' E 001°17'0 0.0
2015-Jun-05 15:32N 51°58' E 001°17'0 0.0
2015-Jun-05 14:32N 51°58' E 001°17'0 0.0
2015-Jun-05 13:32N 51°58' E 001°17'0 0.0
2015-Jun-05 12:32N 51°58' E 001°17'0 0.0
2015-Jun-05 11:32N 51°58' E 001°17'0 0.0
2015-Jun-05 10:32N 51°58' E 001°17'0 0.0
2015-Jun-05 09:32N 51°58' E 001°17'0 0.0
2015-Jun-05 08:32N 51°58' E 001°17'0 0.5
2015-Jun-05 07:33N 51°57' E 001°18'9 8.9
2015-Jun-05 06:33N 51°56' E 001°32'7 6.6
2015-Jun-05 05:33N 51°53' E 001°41'1 0.8
2015-Jun-05 04:31N 51°53' E 001°41'0 0.0
2015-Jun-05 03:31N 51°53' E 001°41'0 0.0
2015-Jun-05 02:31N 51°53' E 001°41'0 0.2
2015-Jun-05 01:31N 51°53' E 001°40'0 0.2
2015-Jun-05 00:31N 51°53' E 001°40'0 0.0
2015-Jun-04 23:31N 51°53' E 001°40'0 0.0
2015-Jun-04 22:31N 51°53' E 001°40'0 0.0
2015-Jun-04 21:31N 51°53' E 001°40'0 0.0
2015-Jun-04 20:31N 51°53' E 001°40'0 0.0
2015-Jun-04 19:31N 51°53' E 001°40'0 0.3
2015-Jun-04 18:31N 51°53' E 001°41'0 0.0
2015-Jun-04 17:31N 51°53' E 001°41'0 0.0
2015-Jun-04 16:31N 51°53' E 001°41'0 0.0
2015-Jun-04 15:31N 51°53' E 001°41'0 0.0
2015-Jun-04 14:31N 51°53' E 001°41'0 0.1
2015-Jun-04 13:31N 51°53' E 001°41'0 0.2
2015-Jun-04 12:33N 51°53' E 001°40'2 1.9
2015-Jun-04 11:33N 51°52' E 001°43'1211.8
2015-Jun-04 10:33N 51°41' E 001°50'1413.9
2015-Jun-04 09:34N 51°27' E 001°55'1312.8
2015-Jun-04 08:33N 51°21' E 002°12'1616.3
2015-Jun-04 07:33N 51°22' E 002°38'1515.2
2015-Jun-04 06:34N 51°25' E 003°02'1818.0
2015-Jun-04 05:34N 51°25' E 003°31'10 9.5
2015-Jun-04 04:34N 51°22' E 003°46'10 9.7
2015-Jun-04 03:33N 51°26' E 003°59'7 7.1
2015-Jun-04 02:33N 51°23' E 004°09'5 5.4
2015-Jun-04 01:33N 51°21' E 004°17'1 0.7
2015-Jun-04 00:34N 51°20' E 004°18'1 1.3
2015-Jun-03 23:33N 51°19' E 004°20'0 0.0
2015-Jun-03 22:33N 51°19' E 004°20'0 0.0
2015-Jun-03 21:33N 51°19' E 004°20'0 0.0
2015-Jun-03 20:33N 51°19' E 004°20'0 0.0
2015-Jun-03 19:33N 51°19' E 004°20'0 0.0
2015-Jun-03 18:27N 51°19' E 004°20'0 0.0
2015-Jun-03 17:33N 51°19' E 004°20'0 0.0
2015-Jun-03 16:33N 51°19' E 004°20'0 0.0
2015-Jun-03 15:33N 51°19' E 004°20'0 0.0
2015-Jun-03 14:33N 51°19' E 004°20'0 0.0
2015-Jun-03 13:33N 51°19' E 004°20'0 0.0
2015-Jun-03 12:33N 51°19' E 004°20'0 0.0
2015-Jun-03 11:33N 51°19' E 004°20'0 0.0
2015-Jun-03 10:32N 51°19' E 004°20'0 0.0
2015-Jun-03 09:32N 51°19' E 004°20'0 0.0
2015-Jun-03 08:32N 51°19' E 004°20'0 0.0
2015-Jun-03 07:32N 51°19' E 004°20'0 0.0
2015-Jun-03 06:32N 51°19' E 004°20'0 0.0
2015-Jun-03 05:32N 51°19' E 004°20'0 0.0
2015-Jun-03 04:32N 51°19' E 004°20'0 0.0
2015-Jun-03 03:32N 51°19' E 004°20'0 0.0
2015-Jun-03 02:32N 51°19' E 004°20'0 0.0
2015-Jun-03 01:32N 51°19' E 004°20'0 0.0
2015-Jun-03 00:32N 51°19' E 004°20'0 0.0
2015-Jun-02 23:32N 51°19' E 004°20'0 0.0
2015-Jun-02 22:33N 51°19' E 004°20'0 0.0
2015-Jun-02 21:33N 51°19' E 004°20'0 0.0
2015-Jun-02 20:27N 51°19' E 004°20'0 0.0
2015-Jun-02 19:33N 51°19' E 004°20'0 0.0
2015-Jun-02 18:33N 51°20' E 004°20'2 2.0
2015-Jun-02 17:33N 51°21' E 004°17'0 0.1
2015-Jun-02 16:33N 51°21' E 004°17'5 4.9
2015-Jun-02 15:33N 51°23' E 004°10'8 8.0
2015-Jun-02 14:33N 51°24' E 003°57'10 9.9
2015-Jun-02 13:33N 51°25' E 003°42'1313.2
2015-Jun-02 12:33N 51°24' E 003°21'1312.6
2015-Jun-02 11:33N 51°28' E 003°02'  

Dump ship's entire track history